Time;durP1;ratioP1;P1;durP2;ratioP2;P2;SDS_P1;SDS_P2;PMS_P1;PMS_P2;Temp;Humidity;BMP_temperature;BMP_pressure;BME280_temperature;BME280_humidity;BME280_pressure;Samples;Min_cycle;Max_cycle;Signal;HPM_P1;HPM_P2
2022/03/18 00:00:29;;;;;;;14.02;5.28;;;;;;;1.23;74.04;100942.00;4336783;33;20083;-73
2022/03/18 00:03:11;;;;;;;13.73;6.40;;;;;;;1.05;74.19;100924.16;4339685;33;20036;-71
2022/03/18 00:05:39;;;;;;;18.77;6.87;;;;;;;0.99;74.91;100919.41;4340178;32;20354;-69
2022/03/18 00:08:05;;;;;;;16.08;7.12;;;;;;;1.03;75.98;100928.75;4341015;33;20044;-72
2022/03/18 00:10:32;;;;;;;13.98;5.80;;;;;;;0.68;76.22;100879.75;4337841;33;20062;-70
2022/03/18 00:12:58;;;;;;;16.08;6.93;;;;;;;1.04;76.17;100943.69;4343413;32;20459;-69
2022/03/18 00:15:27;;;;;;;12.05;5.07;;;;;;;0.97;75.57;100931.94;4340116;33;20099;-69
2022/03/18 00:17:54;;;;;;;15.10;5.30;;;;;;;0.95;76.42;100928.59;4339399;33;20040;-70
2022/03/18 00:20:22;;;;;;;21.27;6.00;;;;;;;1.04;76.23;100943.69;4330207;33;20035;-70
2022/03/18 00:22:49;;;;;;;17.15;7.62;;;;;;;1.00;76.65;100944.94;4327776;33;20066;-69
2022/03/18 00:25:17;;;;;;;15.85;6.10;;;;;;;0.75;76.91;100905.72;4324046;33;20452;-70
2022/03/18 00:27:45;;;;;;;18.62;7.35;;;;;;;0.90;77.66;100942.28;4337899;32;20109;-69
2022/03/18 00:30:14;;;;;;;20.52;8.02;;;;;;;0.85;78.35;100943.69;4328367;33;20032;-70
2022/03/18 00:32:42;;;;;;;23.23;6.82;;;;;;;0.76;77.90;100945.34;4340513;32;20460;-72
2022/03/18 00:35:10;;;;;;;25.73;7.28;;;;;;;0.72;79.40;100936.03;4341567;32;20470;-70
2022/03/18 00:37:37;;;;;;;15.48;6.93;;;;;;;0.41;80.17;100887.56;4340471;32;20081;-70
2022/03/18 00:40:06;;;;;;;14.40;6.10;;;;;;;0.61;80.39;100921.06;4346319;32;20106;-71
2022/03/18 00:42:32;;;;;;;12.43;6.97;;;;;;;0.68;80.80;100938.09;4339208;33;20063;-71
2022/03/18 00:45:00;;;;;;;14.57;6.62;;;;;;;0.38;80.63;100887.84;4338704;32;20066;-71
2022/03/18 00:52:57;;;;;;;15.38;7.28;;;;;;;0.57;82.15;100918.84;4339960;33;20156;-71
2022/03/18 00:55:24;;;;;;;17.27;6.40;;;;;;;0.53;81.72;100928.87;4339895;33;20070;-70
2022/03/18 00:57:50;;;;;;;16.17;7.40;;;;;;;0.55;82.26;100937.53;4340186;33;20502;-70
2022/03/18 01:00:17;;;;;;;22.67;6.15;;;;;;;0.43;83.14;100933.31;4337566;33;20409;-71
2022/03/18 01:02:44;;;;;;;27.48;6.78;;;;;;;0.52;82.88;100948.41;4340128;32;20087;-73
2022/03/18 01:05:10;;;;;;;20.98;6.05;;;;;;;0.51;83.24;100938.75;4341490;33;20822;-71
2022/03/18 01:07:37;;;;;;;17.27;7.32;;;;;;;0.19;82.93;100884.19;4341152;33;20056;-70
2022/03/18 01:10:04;;;;;;;20.08;6.32;;;;;;;0.50;83.23;100947.72;4341802;33;20070;-70
2022/03/18 01:12:30;;;;;;;14.48;6.37;;;;;;;0.44;83.88;100950.91;4340956;33;20036;-70
2022/03/18 01:14:56;;;;;;;15.88;6.68;;;;;;;0.44;84.21;100950.91;4339862;33;20036;-73
2022/03/18 01:17:23;;;;;;;21.25;7.10;;;;;;;-0.17;85.29;100862.62;4327797;33;20047;-70
2022/03/18 01:19:49;;;;;;;20.40;7.15;;;;;;;0.27;84.93;100942.66;4338492;33;20028;-70
2022/03/18 01:22:16;;;;;;;17.12;7.53;;;;;;;0.28;85.77;100935.53;4340237;33;20052;-70
2022/03/18 01:24:42;;;;;;;18.62;7.62;;;;;;;0.12;86.52;100920.16;4341325;33;20082;-73
2022/03/18 01:27:09;;;;;;;12.63;6.12;;;;;;;-0.61;87.09;100806.47;4338851;32;20105;-69
2022/03/18 01:29:35;;;;;;;14.30;6.85;;;;;;;0.11;87.58;100929.06;4325004;33;20091;-69
2022/03/18 01:32:02;;;;;;;19.50;6.32;;;;;;;0.11;88.41;100929.06;4326889;33;20400;-70
2022/03/18 01:34:29;;;;;;;16.58;6.62;;;;;;;-0.17;87.89;100878.53;4339068;33;20464;-71
2022/03/18 01:36:55;;;;;;;20.37;7.32;;;;;;;0.12;87.88;100925.44;4338291;33;20052;-71
2022/03/18 01:39:22;;;;;;;20.88;7.62;;;;;;;-0.35;89.60;100880.13;4333512;33;20867;-72
2022/03/18 01:41:50;;;;;;;20.80;7.30;;;;;;;-0.38;91.13;100900.59;4348416;32;20069;-69
2022/03/18 01:44:23;;;;;;;24.50;8.07;;;;;;;-0.13;90.96;100930.22;4352794;32;20127;-71
2022/03/18 01:46:49;;;;;;;23.02;7.37;;;;;;;-0.11;91.59;100946.84;4353637;32;20031;-74
2022/03/18 01:49:16;;;;;;;16.52;7.00;;;;;;;-0.33;91.09;100894.91;4341474;33;20073;-72
2022/03/18 01:51:43;;;;;;;15.43;6.45;;;;;;;-0.44;91.23;100903.78;4353085;32;20040;-71
2022/03/18 01:56:55;;;;;;;14.30;6.47;;;;;;;-0.22;91.77;100944.28;4366569;32;20048;-72
2022/03/18 01:59:22;;;;;;;19.92;7.40;;;;;;;-0.20;92.42;100950.28;4360726;32;20462;-72
2022/03/18 02:01:50;;;;;;;18.50;6.72;;;;;;;-0.27;93.36;100951.75;4355273;32;20036;-72
2022/03/18 02:04:17;;;;;;;15.55;7.03;;;;;;;-0.18;92.48;100950.97;4355535;32;20167;-71
2022/03/18 02:06:43;;;;;;;14.65;6.07;;;;;;;-0.52;92.57;100906.25;4366021;32;20039;-74
2022/03/18 02:09:10;;;;;;;12.70;5.90;;;;;;;-0.25;92.68;100960.44;4355481;32;20069;-72
2022/03/18 02:11:37;;;;;;;15.57;7.40;;;;;;;-0.27;93.48;100967.66;4358584;32;20077;-71
2022/03/18 02:14:04;;;;;;;30.88;6.72;;;;;;;-0.23;92.35;100975.19;4355587;32;20075;-71
2022/03/18 02:16:30;;;;;;;18.95;6.25;;;;;;;-0.24;92.64;100970.91;4353846;32;20489;-72
2022/03/18 02:18:57;;;;;;;12.70;5.55;;;;;;;-0.56;92.25;100907.47;4358990;32;20369;-72
2022/03/18 02:21:26;;;;;;;24.40;7.70;;;;;;;-0.28;92.24;100963.34;4366721;32;20059;-71
2022/03/18 02:23:52;;;;;;;17.23;7.03;;;;;;;-0.43;92.44;100928.41;4349656;32;20152;-71
2022/03/18 02:26:19;;;;;;;15.20;6.30;;;;;;;-0.43;92.46;100953.09;4356819;32;20040;-71
2022/03/18 02:28:45;;;;;;;14.70;6.30;;;;;;;-0.52;92.33;100948.59;4350414;32;20334;-72
2022/03/18 02:31:12;;;;;;;13.80;6.60;;;;;;;-0.33;92.14;100973.50;4339699;32;20048;-72
2022/03/18 02:33:38;;;;;;;16.62;6.90;;;;;;;-0.70;92.15;100923.66;4355022;32;20056;-72
2022/03/18 02:36:05;;;;;;;12.52;6.45;;;;;;;-0.34;92.74;100972.63;4364360;32;20435;-72
2022/03/18 02:38:32;;;;;;;20.80;6.85;;;;;;;-0.36;92.27;100974.59;4341194;32;20130;-71
2022/03/18 02:40:58;;;;;;;11.30;6.00;;;;;;;-0.39;92.04;100980.13;4340900;32;20052;-74
2022/03/18 02:43:25;;;;;;;16.48;5.87;;;;;;;-0.41;92.65;100979.44;4326075;32;20374;-71
2022/03/18 02:45:51;;;;;;;15.75;5.40;;;;;;;-0.54;92.05;100945.25;4355224;32;20140;-72
2022/03/18 02:48:18;;;;;;;17.70;6.22;;;;;;;-0.48;93.19;100980.91;4353452;32;20395;-71
2022/03/18 02:50:44;;;;;;;11.32;4.85;;;;;;;-0.45;93.09;100978.84;4336712;33;20129;-72
2022/03/18 02:53:10;;;;;;;16.35;7.05;;;;;;;-0.46;93.14;100981.59;4337720;33;20039;-72
2022/03/18 02:55:37;;;;;;;34.20;7.62;;;;;;;-0.52;93.42;100977.69;4339604;33;20385;-71
2022/03/18 02:58:04;;;;;;;21.23;7.93;;;;;;;-0.91;93.03;100916.56;4340026;33;20066;-72
2022/03/18 03:00:30;;;;;;;16.80;6.22;;;;;;;-0.49;94.18;100985.38;4354759;32;20032;-72
2022/03/18 03:02:57;;;;;;;12.27;5.80;;;;;;;-0.53;93.21;100978.66;4345052;32;20040;-71
2022/03/18 03:08:08;;;;;;;19.70;6.50;;;;;;;-0.65;94.08;100975.25;4344990;32;20193;-71
2022/03/18 03:10:38;;;;;;;14.32;5.97;;;;;;;-0.97;93.70;100922.41;4342178;32;20105;-72
2022/03/18 03:13:11;;;;;;;12.80;5.70;;;;;;;-0.66;94.03;100978.03;4351735;32;20092;-72
2022/03/18 03:15:38;;;;;;;13.85;6.50;;;;;;;-0.57;94.16;100993.13;4343442;33;20066;-72
2022/03/18 03:18:06;;;;;;;17.67;7.10;;;;;;;-0.64;93.61;100989.31;4339401;32;20389;-71
2022/03/18 03:20:33;;;;;;;16.40;7.53;;;;;;;-0.59;93.85;101000.34;4353607;32;20062;-74
2022/03/18 03:23:01;;;;;;;11.50;5.37;;;;;;;-1.08;94.44;100935.69;4342913;32;20410;-72
2022/03/18 03:25:27;;;;;;;16.35;6.10;;;;;;;-1.24;94.23;100909.69;4343324;32;20039;-72
2022/03/18 03:27:54;;;;;;;14.40;6.47;;;;;;;-0.65;94.05;101011.47;4342866;33;20389;-71
2022/03/18 03:30:22;;;;;;;16.27;6.32;;;;;;;-0.71;94.27;101014.59;4352211;32;20049;-71
2022/03/18 03:32:49;;;;;;;19.67;7.05;;;;;;;-0.75;95.06;101012.22;4344940;32;20070;-72
2022/03/18 03:35:16;;;;;;;19.10;6.72;;;;;;;-0.76;95.00;101026.41;4328577;33;20074;-72
2022/03/18 03:37:43;;;;;;;15.75;5.95;;;;;;;-0.80;96.19;101030.28;4329428;33;20048;-71
2022/03/18 03:40:13;;;;;;;18.60;6.62;;;;;;;-0.82;96.40;101042.78;4327406;33;20037;-71
2022/03/18 03:42:41;;;;;;;11.10;5.18;;;;;;;-1.13;96.48;100981.84;4366134;32;20346;-71
2022/03/18 03:45:10;;;;;;;14.10;6.40;;;;;;;-0.81;96.83;101041.00;4369015;32;20068;-70
2022/03/18 03:47:38;;;;;;;15.82;6.03;;;;;;;-0.83;96.76;101034.97;4371085;32;20052;-72
2022/03/18 03:50:06;;;;;;;13.32;6.32;;;;;;;-0.95;97.81;101034.19;4370560;32;20075;-72
2022/03/18 03:52:34;;;;;;;16.83;6.57;;;;;;;-1.17;97.88;100993.63;4344243;32;20130;-72
2022/03/18 03:55:03;;;;;;;14.32;5.00;;;;;;;-0.96;98.73;101040.41;4364731;32;20064;-72
2022/03/18 03:57:29;;;;;;;20.40;6.87;;;;;;;-1.00;98.83;101044.31;4361766;32;20073;-72
2022/03/18 03:59:56;;;;;;;16.67;5.90;;;;;;;-1.10;99.07;101045.03;4364079;32;20061;-72
2022/03/18 04:02:23;;;;;;;16.37;6.55;;;;;;;-1.07;99.29;101043.09;4358160;32;20051;-72
2022/03/18 04:04:50;;;;;;;20.37;6.12;;;;;;;-1.04;99.25;101048.16;4355839;32;20051;-75
2022/03/18 04:07:17;;;;;;;20.80;7.22;;;;;;;-1.35;99.32;100990.66;4342542;32;20052;-71
2022/03/18 04:09:44;;;;;;;20.98;8.05;;;;;;;-1.39;100.00;100997.16;4342468;33;20414;-70
2022/03/18 04:12:11;;;;;;;14.18;6.28;;;;;;;-1.10;100.00;101050.31;4359155;32;20380;-70
2022/03/18 04:14:37;;;;;;;22.45;7.40;;;;;;;-1.40;100.00;101005.22;4358217;32;20030;-70
2022/03/18 04:17:04;;;;;;;22.85;7.18;;;;;;;-1.24;100.00;101057.72;4370457;32;20047;-71
2022/03/18 04:19:30;;;;;;;17.70;5.37;;;;;;;-1.29;100.00;101055.44;4358000;32;20059;-69
2022/03/18 04:21:57;;;;;;;20.30;7.95;;;;;;;-1.15;100.00;101057.81;4351045;32;20046;-70
2022/03/18 04:24:23;;;;;;;15.50;6.93;;;;;;;-1.20;100.00;101054.66;4356563;32;20039;-70
2022/03/18 04:26:50;;;;;;;16.30;6.60;;;;;;;-1.26;100.00;101041.09;4356749;32;20078;-70
2022/03/18 04:29:24;;;;;;;9.90;5.57;;;;;;;-1.23;100.00;101044.34;4351285;32;20071;-72
2022/03/18 04:31:51;;;;;;;20.35;6.62;;;;;;;-1.14;100.00;101063.91;4359866;32;20168;-70
2022/03/18 04:34:18;;;;;;;20.40;6.70;;;;;;;-1.52;100.00;101007.88;4362249;32;20036;-71
2022/03/18 04:36:45;;;;;;;16.00;6.75;;;;;;;-1.37;100.00;101052.53;4355105;32;20058;-70
2022/03/18 04:39:12;;;;;;;22.45;6.68;;;;;;;-1.26;100.00;101071.03;4368972;32;20047;-71
2022/03/18 04:41:39;;;;;;;16.75;6.68;;;;;;;-1.30;100.00;101056.38;4361460;32;20051;-70
2022/03/18 04:44:05;;;;;;;21.80;6.37;;;;;;;-1.16;100.00;101077.25;4370859;32;20035;-70
2022/03/18 04:46:32;;;;;;;17.37;7.10;;;;;;;-1.12;100.00;101078.72;4370908;32;20446;-70
2022/03/18 04:48:59;;;;;;;16.05;5.65;;;;;;;-1.22;99.33;101083.03;4370319;32;20107;-70
2022/03/18 04:51:25;;;;;;;14.55;6.28;;;;;;;-1.46;99.20;101033.81;4341100;32;20029;-72
2022/03/18 04:53:52;;;;;;;19.55;6.47;;;;;;;-1.54;99.41;101019.53;4356427;32;20938;-70
2022/03/18 04:59:04;;;;;;;13.35;5.22;;;;;;;-1.39;99.29;101041.25;4359953;32;20090;-70
2022/03/18 05:01:31;;;;;;;14.43;6.82;;;;;;;-1.10;99.39;101095.28;4360496;32;20452;-70
2022/03/18 05:03:57;;;;;;;16.17;7.30;;;;;;;-1.17;99.40;101087.94;4366191;32;20051;-70
2022/03/18 05:06:25;;;;;;;16.17;6.75;;;;;;;-1.13;99.53;101097.34;4355998;32;20079;-70
2022/03/18 05:08:52;;;;;;;13.18;6.47;;;;;;;-1.57;99.65;101044.41;4360117;32;20061;-70
2022/03/18 05:11:18;;;;;;;26.65;8.07;;;;;;;-1.23;100.00;101102.50;4367381;32;20101;-73
2022/03/18 05:13:45;;;;;;;12.25;6.15;;;;;;;-1.96;100.00;100988.47;4340051;32;20075;-70
2022/03/18 05:16:11;;;;;;;23.60;6.90;;;;;;;-1.21;100.00;101108.50;4341340;32;20036;-71
2022/03/18 05:18:38;;;;;;;18.05;6.03;;;;;;;-1.17;100.00;101112.56;4343531;32;20069;-70
2022/03/18 05:21:05;;;;;;;14.40;5.40;;;;;;;-1.20;100.00;101112.81;4342877;32;20385;-73
2022/03/18 05:23:32;;;;;;;13.68;6.50;;;;;;;-1.18;100.00;101099.47;4354283;32;20058;-72
2022/03/18 05:26:00;;;;;;;18.40;6.70;;;;;;;-1.20;100.00;101120.75;4355699;32;20052;-70
2022/03/18 05:28:27;;;;;;;15.95;6.07;;;;;;;-1.26;100.00;101088.69;4355975;32;20072;-70
2022/03/18 05:30:53;;;;;;;23.10;6.70;;;;;;;-1.05;100.00;101115.19;4356161;32;20036;-70
2022/03/18 05:33:20;;;;;;;12.27;5.90;;;;;;;-1.14;100.00;101095.63;4355370;32;20175;-70
2022/03/18 05:35:47;;;;;;;17.10;7.22;;;;;;;-0.95;99.09;101110.88;4351991;32;20048;-70
2022/03/18 05:38:13;;;;;;;13.30;5.70;;;;;;;-1.21;97.99;101068.88;4355856;32;20076;-70
2022/03/18 05:40:39;;;;;;;15.15;6.57;;;;;;;-0.88;97.83;101124.44;4365151;32;20358;-70
2022/03/18 05:43:06;;;;;;;15.90;6.32;;;;;;;-1.02;96.08;101094.66;4365644;32;20062;-69
2022/03/18 05:45:32;;;;;;;17.95;7.07;;;;;;;-0.89;96.39;101113.03;4358268;32;20101;-73
2022/03/18 05:47:59;;;;;;;12.05;5.97;;;;;;;-1.03;96.06;101076.28;4352575;32;20058;-71
2022/03/18 05:50:26;;;;;;;13.02;6.47;;;;;;;-0.79;94.79;101118.41;4359413;32;20520;-70
2022/03/18 05:52:53;;;;;;;12.30;4.37;;;;;;;-0.60;93.95;101125.69;4355908;32;20051;-69
2022/03/18 05:55:20;;;;;;;15.93;6.07;;;;;;;-0.52;92.60;101130.34;4343488;32;20040;-70
2022/03/18 05:57:47;;;;;;;17.15;6.05;;;;;;;-0.48;91.55;101129.97;4361290;32;20043;-70
2022/03/18 06:00:15;;;;;;;12.80;5.37;;;;;;;-0.67;90.64;101109.47;4346643;32;20110;-70
2022/03/18 06:02:42;;;;;;;13.32;6.18;;;;;;;-0.83;90.89;101088.72;4355046;32;20043;-70
2022/03/18 06:05:09;;;;;;;10.18;5.28;;;;;;;-0.83;91.20;101099.31;4355797;32;20066;-70
2022/03/18 06:07:37;;;;;;;12.30;6.43;;;;;;;-0.43;90.82;101148.97;4353292;32;20192;-73
2022/03/18 06:12:49;;;;;;;10.43;5.45;;;;;;;-0.28;88.76;101161.91;4353274;32;20088;-71
2022/03/18 06:15:17;;;;;;;13.15;6.32;;;;;;;-0.54;89.16;101114.59;4353886;32;20052;-71
2022/03/18 06:17:43;;;;;;;17.62;6.95;;;;;;;-0.51;88.47;101113.50;4352832;32;20039;-71
2022/03/18 06:20:10;;;;;;;22.05;6.80;;;;;;;-0.54;87.13;101114.59;4364136;32;20075;-71
2022/03/18 06:22:37;;;;;;;16.10;5.55;;;;;;;-0.27;87.18;101182.97;4352988;32;20039;-71
2022/03/18 06:25:06;;;;;;;12.25;5.35;;;;;;;-0.21;88.13;101179.81;4352747;32;20044;-70
2022/03/18 06:27:34;;;;;;;15.70;6.32;;;;;;;-0.09;88.65;101164.69;4353943;32;20616;-73
2022/03/18 06:30:02;;;;;;;14.27;5.53;;;;;;;-0.49;87.14;101111.59;4345197;32;20050;-71
2022/03/18 06:32:35;;;;;;;17.70;7.18;;;;;;;0.11;86.97;101189.53;4345125;32;20100;-70
2022/03/18 06:35:04;;;;;;;14.73;6.28;;;;;;;0.14;85.14;101183.13;4353272;32;20091;-70
2022/03/18 06:37:32;;;;;;;11.70;5.30;;;;;;;0.20;84.58;101171.19;4349932;33;20031;-73
2022/03/18 06:39:59;;;;;;;14.63;5.30;;;;;;;0.23;83.56;101166.44;4351610;32;20084;-72
2022/03/18 06:42:25;;;;;;;11.38;5.20;;;;;;;0.42;83.32;101181.63;4352780;32;20096;-73
2022/03/18 06:44:52;;;;;;;18.58;5.00;;;;;;;0.47;82.98;101183.88;4340431;32;20040;-72
2022/03/18 06:47:19;;;;;;;20.45;5.80;;;;;;;0.17;80.85;101127.22;4352042;32;20421;-72
2022/03/18 06:49:46;;;;;;;16.52;6.45;;;;;;;0.49;80.37;101181.94;4350628;32;20085;-75
2022/03/18 06:52:12;;;;;;;12.65;5.40;;;;;;;0.42;81.53;101180.81;4354816;32;20074;-72
2022/03/18 06:54:39;;;;;;;14.30;5.68;;;;;;;0.17;81.29;101119.28;4353812;32;20062;-72
2022/03/18 06:57:05;;;;;;;8.50;4.07;;;;;;;0.70;80.15;101189.84;4353739;33;20117;-71
2022/03/18 06:59:33;;;;;;;11.70;5.12;;;;;;;0.67;77.40;101185.66;4352990;32;20062;-71
2022/03/18 07:01:59;;;;;;;15.90;6.32;;;;;;;0.52;78.17;101133.97;4351817;33;20408;-73
2022/03/18 07:04:27;;;;;;;12.88;6.22;;;;;;;0.58;76.18;101143.22;4354476;32;20077;-71
2022/03/18 07:06:53;;;;;;;10.45;4.50;;;;;;;0.75;74.24;101181.50;4351560;33;20031;-71
2022/03/18 07:09:19;;;;;;;18.05;6.03;;;;;;;0.96;74.41;101179.66;4356400;32;20089;-75
2022/03/18 07:11:46;;;;;;;11.12;4.47;;;;;;;0.85;70.85;101147.91;4346752;32;20043;-71
2022/03/18 07:14:12;;;;;;;16.12;5.05;;;;;;;0.98;69.97;101134.41;4357820;32;20131;-71
2022/03/18 07:19:24;;;;;;;7.78;4.90;;;;;;;1.32;60.42;101185.31;4351932;32;20095;-71
2022/03/18 07:21:50;;;;;;;7.87;3.92;;;;;;;1.47;57.87;101171.66;4353895;32;20355;-72
2022/03/18 07:24:16;;;;;;;8.13;5.07;;;;;;;1.65;57.01;101199.22;4353727;32;20475;-72
2022/03/18 07:26:43;;;;;;;8.07;4.55;;;;;;;1.79;57.36;101196.16;4352476;32;20061;-72
2022/03/18 07:29:09;;;;;;;9.82;4.35;;;;;;;2.00;57.05;101200.50;4351683;32;20035;-72
2022/03/18 07:31:36;;;;;;;9.57;5.40;;;;;;;2.07;53.66;101196.28;4352009;32;20098;-73
2022/03/18 07:34:02;;;;;;;9.15;4.18;;;;;;;2.25;54.25;101199.06;4349808;33;20381;-72
2022/03/18 07:36:29;;;;;;;8.43;4.25;;;;;;;2.30;51.09;101196.00;4353717;32;20124;-72
2022/03/18 07:38:55;;;;;;;8.40;4.43;;;;;;;2.27;49.07;101197.09;4353143;33;20071;-71
2022/03/18 07:41:22;;;;;;;17.80;5.47;;;;;;;2.09;47.79;101194.34;4353757;32;20039;-72
2022/03/18 07:43:51;;;;;;;7.30;4.65;;;;;;;1.86;47.73;101134.50;4353974;32;20048;-73
2022/03/18 07:46:18;;;;;;;4.90;3.25;;;;;;;2.16;47.77;101163.53;4352640;33;20397;-71
2022/03/18 07:48:46;;;;;;;11.75;4.45;;;;;;;2.60;46.98;101197.59;4344182;32;20031;-72
2022/03/18 07:51:13;;;;;;;10.63;5.15;;;;;;;2.25;45.79;101161.00;4367159;32;20371;-72
2022/03/18 07:53:39;;;;;;;7.03;5.00;;;;;;;2.34;46.29;101192.06;4367725;32;20384;-71
2022/03/18 07:56:06;;;;;;;7.68;4.32;;;;;;;2.39;46.02;101189.78;4370152;32;20129;-72
2022/03/18 07:58:32;;;;;;;11.98;4.28;;;;;;;2.77;46.59;101209.28;4357808;32;20068;-71
2022/03/18 08:00:59;;;;;;;10.38;4.90;;;;;;;2.67;46.70;101164.09;4346879;32;20190;-71
2022/03/18 08:03:25;;;;;;;10.18;5.07;;;;;;;2.95;45.49;101203.22;4346714;32;20481;-71
2022/03/18 08:05:52;;;;;;;14.25;5.62;;;;;;;2.88;44.72;101206.44;4358924;32;20395;-72
2022/03/18 08:08:18;;;;;;;8.32;4.32;;;;;;;2.37;44.21;101168.66;4356855;32;20423;-72
2022/03/18 08:10:45;;;;;;;9.10;4.50;;;;;;;2.54;44.14;101206.16;4364051;32;20081;-70
2022/03/18 08:13:12;;;;;;;7.40;3.90;;;;;;;2.66;44.58;101212.13;4356110;32;20057;-72
2022/03/18 08:15:40;;;;;;;7.60;3.85;;;;;;;2.76;44.21;101204.97;4353354;32;20084;-69
2022/03/18 08:18:10;;;;;;;10.77;4.57;;;;;;;2.73;44.15;101173.34;4354322;32;20066;-67
2022/03/18 08:20:40;;;;;;;7.82;4.37;;;;;;;3.02;44.62;101217.63;4359136;32;20419;-69
2022/03/18 08:23:12;;;;;;;25.15;5.00;;;;;;;2.86;45.08;101231.56;4365995;32;20070;-69
2022/03/18 08:25:39;;;;;;;6.18;3.60;;;;;;;2.67;44.12;101219.97;4363159;32;20081;-70
2022/03/18 08:28:05;;;;;;;11.05;4.82;;;;;;;2.91;44.99;101227.44;4366972;32;20105;-70
2022/03/18 08:30:33;;;;;;;9.73;4.22;;;;;;;2.97;45.98;101227.84;4366249;32;20114;-69
2022/03/18 08:32:59;;;;;;;12.15;4.35;;;;;;;3.06;46.15;101221.66;4370314;32;20065;-68
2022/03/18 08:35:27;;;;;;;17.50;5.87;;;;;;;3.04;45.98;101226.28;4368451;32;20065;-69
2022/03/18 08:37:56;;;;;;;8.25;3.97;;;;;;;3.05;45.99;101227.97;4355758;32;20505;-69
2022/03/18 08:40:25;;;;;;;12.23;4.50;;;;;;;3.09;45.09;101224.03;4350284;32;20067;-68
2022/03/18 08:42:51;;;;;;;9.75;4.55;;;;;;;3.08;45.48;101230.34;4364552;32;20344;-70
2022/03/18 08:45:18;;;;;;;12.63;4.80;;;;;;;2.81;45.45;101189.41;4355195;32;20060;-70
2022/03/18 08:47:45;;;;;;;7.18;4.57;;;;;;;3.02;45.34;101228.28;4356800;32;20056;-70
2022/03/18 08:50:13;;;;;;;17.10;4.82;;;;;;;3.20;45.71;101242.47;4350551;32;20722;-69
2022/03/18 08:52:40;;;;;;;8.10;3.97;;;;;;;3.11;45.35;101246.00;4359467;32;20047;-69
2022/03/18 08:55:08;;;;;;;9.95;5.10;;;;;;;2.85;46.24;101195.28;4354893;32;20376;-69
2022/03/18 08:57:37;;;;;;;10.98;4.03;;;;;;;3.16;45.70;101246.44;4359462;32;20685;-69
2022/03/18 09:00:07;;;;;;;18.42;4.78;;;;;;;3.25;45.43;101261.50;4358368;32;20110;-72
2022/03/18 09:02:35;;;;;;;16.83;5.40;;;;;;;3.15;45.61;101250.06;4346055;32;20514;-70
2022/03/18 09:05:04;;;;;;;8.32;3.17;;;;;;;3.24;46.18;101264.34;4360215;32;20064;-70
2022/03/18 09:07:32;;;;;;;10.52;6.40;;;;;;;3.33;44.91;101267.91;4356391;32;20065;-75
2022/03/18 09:09:58;;;;;;;12.90;4.78;;;;;;;2.88;44.88;101211.78;4340725;33;20047;-73
2022/03/18 09:12:25;;;;;;;9.57;5.53;;;;;;;3.01;44.87;101205.28;4354402;32;20183;-73
2022/03/18 09:14:51;;;;;;;8.88;4.47;;;;;;;3.16;44.66;101219.81;4356626;32;20073;-72
2022/03/18 09:17:19;;;;;;;10.32;5.32;;;;;;;3.55;44.06;101272.84;4354499;32;20031;-71
2022/03/18 09:19:45;;;;;;;13.73;4.32;;;;;;;3.55;43.37;101266.69;4353755;32;20075;-72
2022/03/18 09:22:16;;;;;;;10.73;4.47;;;;;;;3.66;43.81;101273.66;4360507;32;20051;-72
2022/03/18 09:24:44;;;;;;;9.10;3.87;;;;;;;3.71;43.48;101271.37;4342195;32;20036;-72
2022/03/18 09:27:11;;;;;;;7.95;3.72;;;;;;;3.77;43.44;101281.44;4356514;32;20048;-72
2022/03/18 09:29:38;;;;;;;8.07;5.43;;;;;;;3.67;43.63;101254.84;4357054;32;20052;-72
2022/03/18 09:32:05;;;;;;;7.85;4.15;;;;;;;3.66;43.09;101253.16;4343432;32;20020;-72
2022/03/18 09:34:32;;;;;;;10.02;5.37;;;;;;;3.53;42.29;101226.87;4341353;33;20362;-73
2022/03/18 09:36:58;;;;;;;9.60;4.53;;;;;;;3.72;41.08;101251.72;4342553;32;20028;-72
2022/03/18 09:39:26;;;;;;;15.23;5.90;;;;;;;3.17;40.66;101151.41;4343225;32;20075;-72
2022/03/18 09:41:54;;;;;;;6.70;3.72;;;;;;;4.06;39.72;101291.88;4360925;32;20051;-72
2022/03/18 09:44:21;;;;;;;9.95;4.10;;;;;;;4.19;40.33;101286.16;4361567;32;20407;-75
2022/03/18 09:46:50;;;;;;;8.82;4.07;;;;;;;4.24;40.16;101299.88;4361496;32;20070;-72
2022/03/18 09:49:19;;;;;;;12.02;4.75;;;;;;;4.10;40.81;101287.06;4359748;32;20044;-72
2022/03/18 09:51:47;;;;;;;7.18;3.50;;;;;;;4.30;39.38;101299.28;4356593;32;20440;-72
2022/03/18 09:54:25;;;;;;;6.70;3.97;;;;;;;4.44;38.98;101289.06;4354944;32;20457;-72
2022/03/18 09:56:54;;;;;;;12.95;4.78;;;;;;;4.32;38.06;101288.44;4356683;32;20077;-73
2022/03/18 09:59:22;;;;;;;10.35;5.18;;;;;;;3.97;37.23;101239.47;4358423;32;20032;-71
2022/03/18 10:01:49;;;;;;;6.80;4.22;;;;;;;4.37;37.56;101284.34;4369346;32;20076;-74
2022/03/18 10:04:21;;;;;;;6.60;3.85;;;;;;;4.52;38.00;101286.47;4364323;32;20061;-72
2022/03/18 10:06:48;;;;;;;5.60;3.65;;;;;;;4.36;36.75;101250.66;4359738;32;20040;-73
2022/03/18 10:09:15;;;;;;;13.50;4.82;;;;;;;4.51;37.67;101258.09;4368977;32;20134;-73
2022/03/18 10:11:43;;;;;;;13.27;4.75;;;;;;;4.80;37.77;101305.00;4367801;32;20697;-74
2022/03/18 10:14:20;;;;;;;12.82;4.90;;;;;;;4.92;38.45;101303.75;4366409;32;20087;-71
2022/03/18 10:16:50;;;;;;;11.65;5.07;;;;;;;4.84;39.49;101263.66;4362816;32;20048;-73
2022/03/18 10:19:23;;;;;;;18.08;3.95;;;;;;;5.03;40.55;101316.84;4340950;32;20051;-73
2022/03/18 10:21:53;;;;;;;9.68;4.87;;;;;;;5.00;40.56;101317.16;4343956;32;20076;-72
2022/03/18 10:24:30;;;;;;;11.88;5.15;;;;;;;5.19;41.64;101312.59;4351388;32;20044;-72
2022/03/18 10:27:17;;;;;;;10.60;4.68;;;;;;;4.96;40.71;101269.56;4360712;32;20433;-72
2022/03/18 10:29:46;;;;;;;12.15;5.05;;;;;;;4.72;40.38;101229.25;4362132;32;20074;-73
2022/03/18 10:32:15;;;;;;;10.27;4.53;;;;;;;5.26;41.77;101310.97;4359222;32;20124;-72
2022/03/18 10:37:44;;;;;;;11.55;4.85;;;;;;;5.52;40.81;101316.28;4370211;32;20077;-73
2022/03/18 10:40:13;;;;;;;11.27;4.97;;;;;;;5.80;40.39;101318.72;4366064;32;20357;-73
2022/03/18 10:42:40;;;;;;;5.43;4.00;;;;;;;5.50;40.58;101272.00;4355174;32;20077;-74
2022/03/18 10:45:08;;;;;;;7.28;3.85;;;;;;;5.67;39.35;101307.66;4356311;32;20047;-73
2022/03/18 10:47:41;;;;;;;14.25;4.57;;;;;;;5.97;39.11;101319.62;4354862;32;20036;-72
2022/03/18 10:50:11;;;;;;;8.60;4.45;;;;;;;6.04;40.32;101315.31;4340736;33;20066;-72
2022/03/18 10:52:47;;;;;;;7.50;3.33;;;;;;;6.12;39.48;101312.63;4355304;32;20028;-75
2022/03/18 10:55:20;;;;;;;11.68;4.32;;;;;;;6.20;38.74;101313.66;4356341;32;20945;-73
2022/03/18 10:57:49;;;;;;;13.40;5.15;;;;;;;6.15;39.72;101306.97;4367980;32;20027;-73
2022/03/18 11:00:21;;;;;;;9.23;5.00;;;;;;;5.96;40.01;101270.66;4351874;32;20031;-72
2022/03/18 11:02:49;;;;;;;7.90;4.00;;;;;;;6.15;38.40;101296.25;4359705;32;20370;-71
2022/03/18 11:05:19;;;;;;;9.35;4.32;;;;;;;6.23;38.27;101310.66;4338798;33;20090;-72
2022/03/18 11:07:51;;;;;;;9.98;4.10;;;;;;;6.39;38.87;101313.34;4347952;32;20082;-73
2022/03/18 11:13:07;;;;;;;10.88;3.55;;;;;;;6.99;38.44;101303.25;4368879;32;20036;-72
2022/03/18 11:15:38;;;;;;;6.85;4.32;;;;;;;6.93;37.67;101266.47;4352536;32;20114;-73
2022/03/18 11:18:07;;;;;;;6.80;4.32;;;;;;;7.53;38.08;101292.72;4339200;33;20053;-73
2022/03/18 11:20:42;;;;;;;15.02;5.03;;;;;;;6.37;36.59;101214.50;4338370;33;20415;-72
2022/03/18 11:23:19;;;;;;;13.77;5.45;;;;;;;7.55;36.16;101314.84;4340706;33;20032;-72
2022/03/18 11:25:52;;;;;;;7.28;4.10;;;;;;;7.33;35.64;101272.72;4343370;33;20083;-73
2022/03/18 11:28:20;;;;;;;8.52;4.10;;;;;;;7.56;35.44;101305.78;4338923;33;20342;-73
2022/03/18 11:31:04;;;;;;;10.55;5.60;;;;;;;8.15;36.31;101304.44;4343216;33;20035;-72
2022/03/18 11:33:32;;;;;;;7.72;4.75;;;;;;;7.95;34.09;101304.91;4342634;33;20028;-72
2022/03/18 11:36:07;;;;;;;8.77;3.90;;;;;;;8.61;34.42;101290.22;4340130;33;20077;-72
2022/03/18 11:39:02;;;;;;;7.32;3.60;;;;;;;8.62;32.16;101299.94;4342663;33;20025;-72
2022/03/18 11:41:44;;;;;;;11.65;4.53;;;;;;;7.50;32.60;101301.13;4354664;32;20090;-74
2022/03/18 11:44:11;;;;;;;20.08;5.57;;;;;;;8.19;33.96;101305.78;4341579;33;20171;-72
2022/03/18 11:46:40;;;;;;;8.23;4.55;;;;;;;8.71;34.28;101278.19;4341048;33;20058;-72
2022/03/18 11:49:08;;;;;;;11.68;4.97;;;;;;;8.82;33.66;101305.63;4327332;33;20341;-73